Time;durP1;ratioP1;P1;durP2;ratioP2;P2;SDS_P1;SDS_P2;PMS_P1;PMS_P2;Temp;Humidity;BMP_temperature;BMP_pressure;BME280_temperature;BME280_humidity;BME280_pressure;Samples;Min_cycle;Max_cycle;Signal;HPM_P1;HPM_P2
2021/10/23 00:00:41;;;;;;;3.80;2.00;;;21.30;50.80;;;;;;3120592;28;20707;-51
2021/10/23 00:02:13;;;;;;;3.70;2.03;;;21.30;50.70;;;;;;3119909;28;20045;-47
2021/10/23 00:03:45;;;;;;;4.63;1.98;;;21.30;50.80;;;;;;3120981;28;20053;-51
2021/10/23 00:05:17;;;;;;;3.10;1.83;;;21.30;50.90;;;;;;3120296;28;20080;-47
2021/10/23 00:06:48;;;;;;;2.72;1.75;;;21.30;50.80;;;;;;3120114;28;20099;-50
2021/10/23 00:08:22;;;;;;;4.28;2.03;;;21.30;50.70;;;;;;3120506;28;20049;-50
2021/10/23 00:09:54;;;;;;;3.13;1.90;;;21.30;50.80;;;;;;3120009;28;20411;-53
2021/10/23 00:11:26;;;;;;;3.47;1.95;;;21.30;50.70;;;;;;3120705;28;20107;-53
2021/10/23 00:12:58;;;;;;;2.95;2.10;;;21.40;50.70;;;;;;3119894;28;20160;-51
2021/10/23 00:14:29;;;;;;;4.00;1.80;;;21.40;50.70;;;;;;3120160;28;20104;-51
2021/10/23 00:16:01;;;;;;;4.55;1.85;;;21.40;50.70;;;;;;3120108;28;20050;-52
2021/10/23 00:17:33;;;;;;;4.57;1.95;;;21.40;50.70;;;;;;3110296;28;20053;-52
2021/10/23 00:19:05;;;;;;;3.15;1.77;;;21.30;50.70;;;;;;3108676;28;20072;-54
2021/10/23 00:20:36;;;;;;;2.97;1.77;;;21.40;50.70;;;;;;3107542;28;20050;-47
2021/10/23 00:22:08;;;;;;;4.72;1.98;;;21.40;50.70;;;;;;3107745;28;20050;-49
2021/10/23 00:23:41;;;;;;;3.28;1.80;;;21.40;50.70;;;;;;3111616;28;20046;-47
2021/10/23 00:25:13;;;;;;;4.25;2.10;;;21.40;50.70;;;;;;3112933;28;20045;-56
2021/10/23 00:26:44;;;;;;;4.18;1.80;;;21.40;50.80;;;;;;3120166;28;20072;-48
2021/10/23 00:28:16;;;;;;;3.55;1.80;;;21.40;51.40;;;;;;3120139;28;20049;-47
2021/10/23 00:29:48;;;;;;;3.27;1.73;;;21.40;50.70;;;;;;3108032;28;20480;-50
2021/10/23 00:31:20;;;;;;;3.28;1.90;;;21.40;50.70;;;;;;3110461;28;20091;-53
2021/10/23 00:32:51;;;;;;;3.67;1.90;;;21.40;50.70;;;;;;3120033;28;20049;-52
2021/10/23 00:34:22;;;;;;;5.40;2.35;;;21.40;50.80;;;;;;3120434;28;20057;-50
2021/10/23 00:35:54;;;;;;;2.58;1.50;;;21.40;50.80;;;;;;3120576;28;20435;-47
2021/10/23 00:37:25;;;;;;;1.75;1.30;;;21.40;50.70;;;;;;3122313;28;20518;-50
2021/10/23 00:38:58;;;;;;;2.75;1.60;;;21.40;50.70;;;;;;3123136;28;20143;-52
2021/10/23 00:40:29;;;;;;;4.00;2.15;;;21.40;50.60;;;;;;3113756;28;20050;-52
2021/10/23 00:42:00;;;;;;;2.63;1.55;;;21.40;50.70;;;;;;3120088;28;20114;-54
2021/10/23 00:43:32;;;;;;;3.15;1.75;;;21.40;50.70;;;;;;3110296;28;20045;-47
2021/10/23 00:45:03;;;;;;;3.78;1.60;;;21.40;50.70;;;;;;3110818;28;20049;-55
2021/10/23 00:46:35;;;;;;;3.13;1.73;;;21.40;50.70;;;;;;3109679;28;20527;-47
2021/10/23 00:48:07;;;;;;;3.97;1.85;;;21.40;50.70;;;;;;3117616;28;20510;-55
2021/10/23 00:49:39;;;;;;;2.97;2.00;;;21.40;50.60;;;;;;3121997;28;20132;-53
2021/10/23 00:51:11;;;;;;;3.28;2.05;;;21.40;50.70;;;;;;3121266;28;20045;-49
2021/10/23 00:52:43;;;;;;;3.73;1.90;;;21.40;50.70;;;;;;3120887;28;20076;-51
2021/10/23 00:54:16;;;;;;;2.50;1.55;;;21.40;50.70;;;;;;3112695;28;20297;-48
2021/10/23 00:55:48;;;;;;;4.70;2.22;;;21.40;50.70;;;;;;3119017;28;20041;-51
2021/10/23 00:57:19;;;;;;;2.53;1.60;;;21.40;50.70;;;;;;3126491;28;20053;-48
2021/10/23 00:58:50;;;;;;;2.90;1.60;;;21.40;50.70;;;;;;3134763;28;20055;-53
2021/10/23 01:00:23;;;;;;;3.25;1.50;;;21.50;50.60;;;;;;3134015;28;20045;-53
2021/10/23 01:01:54;;;;;;;2.97;1.73;;;21.40;50.60;;;;;;3134393;28;20055;-46
2021/10/23 01:03:26;;;;;;;4.10;1.60;;;21.40;50.70;;;;;;3135084;28;20384;-48
2021/10/23 01:04:58;;;;;;;2.53;1.60;;;21.40;50.80;;;;;;3134659;28;20063;-47
2021/10/23 01:06:30;;;;;;;3.08;1.90;;;21.40;50.80;;;;;;3134685;28;20045;-49
2021/10/23 01:08:01;;;;;;;3.00;1.52;;;21.40;50.80;;;;;;3129913;28;20545;-55
2021/10/23 01:09:36;;;;;;;3.05;1.33;;;21.40;50.80;;;;;;3113853;28;20057;-48
2021/10/23 01:11:08;;;;;;;5.20;1.80;;;21.40;50.80;;;;;;3122381;28;20103;-54
2021/10/23 01:12:40;;;;;;;2.88;1.50;;;21.40;50.70;;;;;;3121681;28;20104;-47
2021/10/23 01:14:12;;;;;;;3.70;1.70;;;21.50;50.70;;;;;;3132859;28;20090;-50
2021/10/23 01:15:44;;;;;;;3.15;1.50;;;21.50;50.60;;;;;;3134138;28;20269;-53
2021/10/23 01:17:20;;;;;;;4.10;1.60;;;21.50;50.70;;;;;;3133964;28;20044;-50
2021/10/23 01:18:52;;;;;;;2.03;1.25;;;21.50;50.70;;;;;;3135252;28;20052;-51
2021/10/23 01:20:25;;;;;;;2.45;1.38;;;21.40;50.70;;;;;;3133262;28;20217;-49
2021/10/23 01:21:57;;;;;;;2.25;1.45;;;21.40;50.70;;;;;;3134178;28;20095;-52
2021/10/23 01:23:29;;;;;;;3.90;1.70;;;21.40;50.70;;;;;;3134240;28;20048;-52
2021/10/23 01:24:59;;;;;;;3.05;1.70;;;21.50;50.70;;;;;;3135298;28;20569;-50
2021/10/23 01:26:31;;;;;;;3.58;1.80;;;21.50;50.70;;;;;;3134378;28;20116;-50
2021/10/23 01:28:04;;;;;;;2.95;1.65;;;21.50;50.70;;;;;;3133929;28;20075;-48
2021/10/23 01:29:35;;;;;;;3.28;1.80;;;21.50;50.70;;;;;;3114286;28;20459;-54
2021/10/23 01:31:07;;;;;;;2.55;1.63;;;21.50;50.70;;;;;;3109602;28;20463;-55
2021/10/23 01:32:38;;;;;;;2.05;1.38;;;21.50;50.70;;;;;;3109129;28;20167;-47
2021/10/23 01:34:13;;;;;;;2.17;1.40;;;21.50;50.60;;;;;;3109803;28;20132;-48
2021/10/23 01:35:46;;;;;;;4.03;1.67;;;21.50;50.70;;;;;;3109939;28;20492;-47
2021/10/23 01:37:18;;;;;;;2.85;1.45;;;21.50;50.80;;;;;;3109571;28;20096;-53
2021/10/23 01:38:50;;;;;;;3.95;1.80;;;21.40;50.80;;;;;;3120879;28;20095;-54
2021/10/23 01:40:24;;;;;;;2.28;1.40;;;21.40;50.80;;;;;;3110669;28;20050;-47
2021/10/23 01:41:56;;;;;;;2.92;1.50;;;21.40;50.80;;;;;;3110894;28;20050;-51
2021/10/23 01:43:28;;;;;;;3.60;1.48;;;21.50;50.70;;;;;;3122244;28;20064;-49
2021/10/23 01:45:00;;;;;;;2.75;1.73;;;21.40;50.80;;;;;;3121877;28;20049;-55
2021/10/23 01:46:31;;;;;;;2.60;1.42;;;21.40;50.90;;;;;;3121158;28;20041;-48
2021/10/23 01:48:03;;;;;;;2.90;1.40;;;21.40;50.90;;;;;;3121134;28;20511;-52
2021/10/23 01:49:35;;;;;;;4.10;1.70;;;21.40;50.80;;;;;;3121537;28;20112;-53
2021/10/23 01:51:08;;;;;;;2.80;1.58;;;21.40;50.90;;;;;;3116604;28;20120;-47
2021/10/23 01:52:39;;;;;;;2.92;1.40;;;21.40;50.90;;;;;;3108731;28;20064;-53
2021/10/23 01:54:11;;;;;;;3.15;1.83;;;21.40;50.90;;;;;;3110178;28;20049;-54
2021/10/23 01:55:43;;;;;;;2.67;1.48;;;21.40;51.00;;;;;;3109758;28;20053;-47
2021/10/23 01:57:14;;;;;;;2.28;1.30;;;21.40;51.00;;;;;;3109142;28;20047;-52
2021/10/23 01:58:46;;;;;;;2.83;1.30;;;21.40;50.90;;;;;;3109878;28;20054;-52
2021/10/23 02:00:18;;;;;;;2.33;1.50;;;21.40;50.90;;;;;;3108906;28;20054;-52
2021/10/23 02:01:50;;;;;;;2.50;1.65;;;21.40;50.90;;;;;;3109170;28;20045;-49
2021/10/23 02:03:22;;;;;;;2.70;1.55;;;21.40;50.90;;;;;;3109811;28;20054;-48
2021/10/23 02:04:54;;;;;;;2.85;1.40;;;21.40;50.90;;;;;;3109500;28;20708;-50
2021/10/23 02:06:27;;;;;;;3.17;1.63;;;21.40;50.90;;;;;;3110070;28;20100;-49
2021/10/23 02:07:58;;;;;;;3.22;1.58;;;21.40;50.90;;;;;;3113240;28;20049;-52
2021/10/23 02:09:30;;;;;;;1.65;1.35;;;21.40;51.00;;;;;;3113396;28;20068;-51
2021/10/23 02:11:02;;;;;;;3.25;1.40;;;21.40;51.00;;;;;;3121358;28;20053;-50
2021/10/23 02:12:33;;;;;;;2.92;1.50;;;21.50;50.90;;;;;;3121308;28;20049;-52
2021/10/23 02:14:05;;;;;;;3.85;1.75;;;21.50;51.30;;;;;;3121748;28;20053;-48
2021/10/23 02:15:37;;;;;;;2.20;1.15;;;21.50;51.30;;;;;;3121206;28;20565;-53
2021/10/23 02:17:09;;;;;;;3.67;1.15;;;21.40;51.20;;;;;;3120199;28;20435;-52
2021/10/23 02:18:41;;;;;;;2.33;1.30;;;21.50;51.20;;;;;;3116863;28;20053;-54
2021/10/23 02:20:13;;;;;;;2.00;1.30;;;21.50;51.20;;;;;;3114446;28;20060;-53
2021/10/23 02:21:46;;;;;;;3.30;1.45;;;21.40;51.20;;;;;;3123558;28;20049;-51
2021/10/23 02:23:16;;;;;;;3.58;1.58;;;21.40;51.20;;;;;;3134190;28;20048;-50
2021/10/23 02:24:48;;;;;;;3.78;1.60;;;21.50;51.30;;;;;;3134277;28;20487;-47
2021/10/23 02:26:19;;;;;;;3.22;1.80;;;21.50;51.40;;;;;;3126516;28;20412;-54
2021/10/23 02:27:51;;;;;;;220.23;74.22;;;21.40;51.60;;;;;;3120414;28;20128;-55
2021/10/23 02:29:22;;;;;;;466.60;180.45;;;21.40;52.60;;;;;;3113855;28;20060;-47
2021/10/23 02:30:54;;;;;;;556.80;239.00;;;21.40;53.20;;;;;;3108056;28;20632;-53
2021/10/23 02:32:26;;;;;;;445.70;177.13;;;21.40;53.60;;;;;;3108510;28;20050;-49
2021/10/23 02:33:57;;;;;;;381.20;141.90;;;21.40;53.80;;;;;;3109730;28;20045;-52
2021/10/23 02:35:29;;;;;;;286.42;106.60;;;21.40;54.20;;;;;;3109446;28;20477;-55
2021/10/23 02:37:02;;;;;;;257.95;89.68;;;21.30;54.10;;;;;;3108619;28;20069;-49
2021/10/23 02:38:34;;;;;;;222.52;81.95;;;21.30;54.20;;;;;;3121380;28;20466;-52
2021/10/23 02:40:07;;;;;;;210.05;75.63;;;21.30;54.20;;;;;;3121011;28;20484;-51
2021/10/23 02:41:39;;;;;;;;;;;21.30;54.20;;;;;;3121470;28;20053;-50
2021/10/23 02:43:10;;;;;;;197.20;66.22;;;21.30;54.10;;;;;;3120652;28;19921;-51
2021/10/23 02:44:42;;;;;;;181.50;64.82;;;21.30;54.10;;;;;;3121426;28;20057;-48
2021/10/23 02:46:14;;;;;;;194.30;65.68;;;21.30;54.10;;;;;;3115576;28;20045;-49
2021/10/23 02:47:46;;;;;;;183.02;65.25;;;21.30;54.10;;;;;;3108238;28;20046;-51
2021/10/23 02:49:18;;;;;;;186.98;64.35;;;21.30;54.20;;;;;;3108506;28;20053;-55
2021/10/23 02:50:50;;;;;;;175.93;63.58;;;21.30;54.10;;;;;;3110392;28;20054;-53
2021/10/23 02:52:23;;;;;;;186.80;66.88;;;21.30;54.10;;;;;;3120934;28;20123;-48
2021/10/23 02:53:54;;;;;;;179.45;63.45;;;21.30;54.30;;;;;;3120879;28;20053;-52
2021/10/23 02:55:26;;;;;;;190.88;66.13;;;21.30;54.40;;;;;;3121396;28;20415;-50
2021/10/23 02:56:58;;;;;;;180.52;63.38;;;21.30;54.50;;;;;;3120674;28;20146;-51
2021/10/23 02:58:30;;;;;;;180.70;65.07;;;21.30;54.50;;;;;;3121510;28;20082;-52
2021/10/23 03:00:02;;;;;;;173.63;63.95;;;21.20;54.60;;;;;;3119830;28;20084;-48
2021/10/23 03:01:33;;;;;;;183.18;64.95;;;21.20;54.60;;;;;;3120581;28;20053;-50
2021/10/23 03:03:05;;;;;;;184.00;66.28;;;21.30;54.60;;;;;;3120965;28;20058;-55
2021/10/23 03:04:37;;;;;;;174.35;62.50;;;21.30;54.60;;;;;;3120757;28;20052;-54
2021/10/23 03:06:09;;;;;;;179.75;63.42;;;21.30;54.60;;;;;;3121108;28;20076;-54
2021/10/23 03:07:42;;;;;;;174.55;63.63;;;21.30;54.60;;;;;;3120414;28;20057;-50
2021/10/23 03:09:14;;;;;;;167.18;60.72;;;21.30;54.60;;;;;;3120082;28;20049;-48
2021/10/23 03:10:46;;;;;;;174.35;62.60;;;21.30;54.70;;;;;;3107829;28;20050;-52
2021/10/23 03:12:18;;;;;;;171.98;60.28;;;21.20;54.70;;;;;;3107992;28;20046;-52
2021/10/23 03:13:50;;;;;;;173.43;61.20;;;21.20;54.80;;;;;;3108287;28;20050;-53
2021/10/23 03:15:22;;;;;;;171.85;61.92;;;21.30;54.80;;;;;;3115402;28;20049;-53
2021/10/23 03:16:53;;;;;;;161.63;61.42;;;21.30;54.80;;;;;;3114605;28;20389;-50
2021/10/23 03:18:25;;;;;;;162.68;61.20;;;21.30;54.90;;;;;;3120851;28;20049;-53
2021/10/23 03:19:57;;;;;;;169.32;61.67;;;21.20;54.90;;;;;;3119719;28;20053;-52
2021/10/23 03:21:28;;;;;;;158.77;59.45;;;21.30;54.90;;;;;;3121110;28;20419;-52
2021/10/23 03:23:01;;;;;;;160.57;60.38;;;21.20;54.80;;;;;;3120321;28;20045;-50
2021/10/23 03:24:33;;;;;;;160.05;59.08;;;21.20;55.00;;;;;;3120913;28;20057;-53
2021/10/23 03:26:05;;;;;;;156.43;59.00;;;21.20;55.00;;;;;;3120974;28;20107;-47
2021/10/23 03:27:37;;;;;;;157.45;59.65;;;21.20;55.00;;;;;;3120172;28;20430;-51
2021/10/23 03:29:09;;;;;;;156.50;56.88;;;21.20;54.90;;;;;;3114766;28;20493;-55
2021/10/23 03:30:41;;;;;;;151.30;55.85;;;21.20;54.90;;;;;;3107137;28;20588;-50
2021/10/23 03:32:13;;;;;;;154.13;58.47;;;21.20;55.00;;;;;;3108204;28;20126;-54
2021/10/23 03:33:45;;;;;;;152.65;57.83;;;21.20;55.10;;;;;;3108730;28;20491;-50
2021/10/23 03:35:16;;;;;;;151.48;56.55;;;21.20;55.10;;;;;;3108070;28;20050;-52
2021/10/23 03:36:48;;;;;;;146.02;55.30;;;21.20;55.20;;;;;;3107611;28;20045;-54
2021/10/23 03:38:21;;;;;;;141.07;55.83;;;21.10;55.20;;;;;;3115834;28;20346;-52
2021/10/23 03:39:53;;;;;;;142.80;53.42;;;21.20;55.10;;;;;;3119642;28;20463;-55
2021/10/23 03:41:24;;;;;;;135.57;54.50;;;21.20;55.10;;;;;;3109731;28;20528;-50
2021/10/23 03:42:56;;;;;;;147.20;54.20;;;21.20;55.10;;;;;;3116857;28;20049;-54
2021/10/23 03:44:28;;;;;;;136.65;54.13;;;21.20;55.20;;;;;;3120938;28;20077;-48
2021/10/23 03:45:59;;;;;;;133.50;52.95;;;21.20;55.20;;;;;;3112040;28;20100;-51
2021/10/23 03:47:31;;;;;;;130.30;52.85;;;21.20;55.20;;;;;;3110193;28;20042;-52
2021/10/23 03:49:03;;;;;;;137.20;51.20;;;21.20;55.20;;;;;;3119785;28;20053;-49
2021/10/23 03:50:35;;;;;;;138.18;52.13;;;21.20;55.30;;;;;;3120121;28;20056;-53
2021/10/23 03:52:06;;;;;;;122.88;49.78;;;21.20;55.20;;;;;;3119030;28;20041;-48
2021/10/23 03:53:40;;;;;;;124.80;49.75;;;21.30;55.20;;;;;;3120177;28;20050;-51
2021/10/23 03:55:11;;;;;;;119.25;48.42;;;21.30;55.00;;;;;;3119985;28;20060;-53
2021/10/23 03:56:43;;;;;;;125.45;49.75;;;21.40;54.90;;;;;;3119494;28;20056;-55
2021/10/23 03:58:15;;;;;;;121.80;48.92;;;21.50;54.80;;;;;;3120050;28;20057;-52
2021/10/23 03:59:47;;;;;;;117.82;47.70;;;21.50;54.60;;;;;;3119985;28;20053;-54
2021/10/23 04:01:19;;;;;;;116.70;48.33;;;21.60;54.50;;;;;;3114631;28;20046;-53
2021/10/23 04:02:51;;;;;;;113.05;46.50;;;21.60;54.30;;;;;;3115709;28;20499;-52
2021/10/23 04:04:23;;;;;;;107.90;46.13;;;21.70;54.20;;;;;;3120331;28;20554;-54
2021/10/23 04:05:54;;;;;;;116.18;46.20;;;21.70;54.10;;;;;;3119726;28;20057;-53
2021/10/23 04:07:26;;;;;;;109.60;44.80;;;21.80;54.20;;;;;;3120396;28;20063;-49
2021/10/23 04:08:59;;;;;;;111.78;45.65;;;21.80;53.90;;;;;;3120260;28;20099;-54
2021/10/23 04:10:31;;;;;;;105.63;44.00;;;21.90;53.80;;;;;;3116273;28;20045;-54
2021/10/23 04:12:03;;;;;;;107.30;43.95;;;21.90;53.70;;;;;;3107727;28;20042;-53
2021/10/23 04:13:35;;;;;;;101.97;44.05;;;21.90;53.60;;;;;;3108622;28;20057;-50
2021/10/23 04:15:07;;;;;;;111.95;44.97;;;22.00;53.60;;;;;;3115577;28;20463;-49
2021/10/23 04:16:40;;;;;;;102.53;42.58;;;22.00;53.50;;;;;;3119494;28;20464;-50
2021/10/23 04:18:11;;;;;;;101.65;44.78;;;22.00;53.40;;;;;;3120229;28;20136;-54
2021/10/23 04:19:43;;;;;;;94.80;42.15;;;22.10;53.40;;;;;;3119663;28;20049;-51
2021/10/23 04:21:15;;;;;;;96.93;40.47;;;22.10;53.20;;;;;;3120566;28;20427;-52
2021/10/23 04:22:47;;;;;;;98.88;41.70;;;22.20;53.20;;;;;;3119729;28;20056;-50
2021/10/23 04:24:20;;;;;;;94.00;40.05;;;22.20;53.10;;;;;;3120744;28;20499;-53
2021/10/23 04:25:52;;;;;;;88.70;39.45;;;22.30;52.90;;;;;;3120563;28;20053;-52
2021/10/23 04:27:23;;;;;;;85.20;40.13;;;22.30;52.90;;;;;;3119685;28;20424;-49
2021/10/23 04:28:55;;;;;;;88.70;39.15;;;22.40;52.80;;;;;;3119966;28;20057;-50
2021/10/23 04:30:27;;;;;;;87.45;39.70;;;22.40;52.60;;;;;;3118879;28;20048;-49
2021/10/23 04:31:59;;;;;;;84.55;37.70;;;22.40;52.50;;;;;;3119740;28;20061;-54
2021/10/23 04:33:31;;;;;;;90.20;38.38;;;22.50;52.50;;;;;;3120247;28;20049;-53
2021/10/23 04:35:03;;;;;;;83.18;37.67;;;22.50;52.40;;;;;;3119698;28;20045;-53
2021/10/23 04:36:35;;;;;;;84.20;38.88;;;22.60;52.30;;;;;;3120782;28;20057;-55
2021/10/23 04:38:07;;;;;;;79.10;37.85;;;22.60;52.20;;;;;;3119488;28;20041;-54
2021/10/23 04:39:40;;;;;;;78.43;37.80;;;22.60;52.20;;;;;;3119407;28;20088;-54
2021/10/23 04:41:12;;;;;;;81.45;37.13;;;22.60;52.10;;;;;;3119730;28;20053;-49
2021/10/23 04:42:44;;;;;;;76.63;35.80;;;22.70;52.10;;;;;;3111110;28;20053;-52
2021/10/23 04:44:16;;;;;;;;;;;22.70;52.00;;;;;;3108346;28;20551;-49
2021/10/23 04:45:48;;;;;;;73.65;34.97;;;22.70;52.00;;;;;;3107183;28;20322;-55
2021/10/23 04:47:19;;;;;;;77.72;35.53;;;22.70;52.10;;;;;;3107173;28;20614;-55
2021/10/23 04:48:51;;;;;;;72.60;34.65;;;22.70;52.10;;;;;;3108033;28;20046;-52
2021/10/23 04:50:23;;;;;;;70.55;33.90;;;22.70;52.00;;;;;;3106730;28;20062;-52
2021/10/23 04:51:55;;;;;;;72.13;34.42;;;22.70;52.00;;;;;;3111542;28;20046;-54
2021/10/23 04:53:26;;;;;;;71.40;34.45;;;22.60;52.80;;;;;;3107451;28;20046;-53
2021/10/23 04:54:59;;;;;;;68.38;33.00;;;22.60;52.20;;;;;;3107964;28;20053;-52
2021/10/23 04:56:31;;;;;;;67.18;32.17;;;22.60;52.30;;;;;;3107311;28;20054;-49
2021/10/23 04:58:03;;;;;;;71.43;33.30;;;22.50;52.40;;;;;;3106287;28;20050;-51
2021/10/23 04:59:35;;;;;;;72.88;33.70;;;22.50;52.40;;;;;;3107834;28;20049;-54
2021/10/23 05:01:06;;;;;;;66.20;32.53;;;22.40;52.50;;;;;;3106416;28;20045;-55
2021/10/23 05:02:38;;;;;;;66.70;32.63;;;22.40;52.60;;;;;;3106607;28;20042;-54
2021/10/23 05:04:10;;;;;;;70.40;32.28;;;22.40;52.70;;;;;;3107668;28;20045;-49
2021/10/23 05:05:41;;;;;;;67.53;32.13;;;22.40;52.80;;;;;;3107574;28;20050;-47
2021/10/23 05:07:13;;;;;;;64.95;31.52;;;22.30;52.70;;;;;;3114230;28;20046;-49
2021/10/23 05:08:45;;;;;;;60.40;29.92;;;22.30;52.80;;;;;;3118580;28;20100;-48
2021/10/23 05:10:18;;;;;;;63.28;31.17;;;22.30;52.90;;;;;;3118744;28;20045;-56
2021/10/23 05:11:50;;;;;;;59.28;31.35;;;22.20;52.90;;;;;;3119524;28;20545;-46
2021/10/23 05:13:22;;;;;;;63.45;29.65;;;22.20;53.00;;;;;;3119162;28;20076;-54
2021/10/23 05:14:54;;;;;;;61.15;29.83;;;22.20;53.10;;;;;;3119622;28;20774;-46
2021/10/23 05:16:25;;;;;;;57.08;29.50;;;22.20;53.10;;;;;;3118856;28;20471;-49
2021/10/23 05:17:57;;;;;;;62.47;30.38;;;22.10;53.10;;;;;;3118605;28;20103;-49
2021/10/23 05:19:29;;;;;;;57.10;29.83;;;22.20;53.20;;;;;;3119086;28;20423;-45
2021/10/23 05:21:01;;;;;;;59.78;29.33;;;22.10;53.20;;;;;;3117984;28;20415;-45
2021/10/23 05:22:32;;;;;;;55.25;29.20;;;22.10;53.30;;;;;;3119165;28;20140;-46
2021/10/23 05:24:05;;;;;;;56.03;28.48;;;22.10;53.20;;;;;;3120685;28;20332;-45
2021/10/23 05:25:38;;;;;;;54.03;27.42;;;22.10;53.20;;;;;;3122013;28;20053;-48
2021/10/23 05:27:09;;;;;;;53.20;27.05;;;22.10;53.30;;;;;;3120719;28;20053;-50
2021/10/23 05:28:41;;;;;;;54.60;26.70;;;22.10;53.30;;;;;;3120858;28;20052;-50
2021/10/23 05:30:13;;;;;;;56.15;28.50;;;22.10;53.20;;;;;;3120565;28;20050;-44
2021/10/23 05:31:46;;;;;;;51.45;27.33;;;22.20;53.20;;;;;;3120997;28;20061;-54
2021/10/23 05:33:17;;;;;;;52.97;26.80;;;22.20;53.20;;;;;;3121906;28;20341;-45
2021/10/23 05:34:49;;;;;;;50.55;25.38;;;22.20;53.20;;;;;;3118001;28;20073;-49
2021/10/23 05:36:21;;;;;;;50.25;26.33;;;22.20;53.10;;;;;;3110304;28;20056;-48
2021/10/23 05:37:53;;;;;;;51.85;26.13;;;22.20;53.10;;;;;;3121149;28;20064;-45
2021/10/23 05:39:24;;;;;;;52.35;26.10;;;22.30;53.00;;;;;;3111828;28;20046;-52
2021/10/23 05:40:57;;;;;;;50.35;25.73;;;22.30;52.90;;;;;;3115403;28;20049;-53
2021/10/23 05:42:30;;;;;;;47.50;25.33;;;22.30;52.80;;;;;;3128773;22;20480;-54
2021/10/23 05:44:01;;;;;;;50.92;25.48;;;22.30;52.90;;;;;;3103242;28;20054;-55
2021/10/23 05:45:33;;;;;;;48.75;23.60;;;22.30;53.00;;;;;;3103046;28;20504;-51
2021/10/23 05:47:06;;;;;;;50.95;24.67;;;22.30;52.90;;;;;;3098483;28;20049;-58
2021/10/23 05:48:37;;;;;;;50.47;24.13;;;22.30;52.90;;;;;;3107965;28;20042;-54
2021/10/23 05:50:11;;;;;;;43.85;22.42;;;22.30;52.90;;;;;;3106841;28;20076;-52
2021/10/23 05:51:44;;;;;;;54.65;22.88;;;22.40;53.00;;;;;;3109134;28;20057;-50
2021/10/23 05:53:16;;;;;;;48.88;22.50;;;22.40;53.00;;;;;;3109966;28;20054;-55
2021/10/23 05:54:47;;;;;;;42.00;21.42;;;22.50;52.90;;;;;;3109679;28;20046;-53
2021/10/23 05:56:21;;;;;;;39.10;20.40;;;22.50;52.80;;;;;;3107650;28;20046;-57
2021/10/23 05:57:52;;;;;;;41.35;19.05;;;22.40;52.60;;;;;;3098062;28;20358;-57
2021/10/23 05:59:24;;;;;;;33.60;18.10;;;22.40;52.40;;;;;;3098337;28;20042;-54
2021/10/23 06:00:59;;;;;;;37.08;17.08;;;22.40;52.40;;;;;;3101609;28;20054;-54
2021/10/23 06:02:32;;;;;;;33.53;17.27;;;22.40;52.50;;;;;;3106345;28;20100;-60
2021/10/23 06:04:04;;;;;;;;;;;22.40;52.80;;;;;;3110158;28;20049;-56
2021/10/23 06:05:35;;;;;;;33.90;17.02;;;22.40;52.90;;;;;;3109361;28;19925;-54
2021/10/23 06:07:07;;;;;;;34.47;17.08;;;22.50;52.90;;;;;;3109219;28;20060;-59
2021/10/23 06:08:39;;;;;;;48.65;16.58;;;22.50;52.80;;;;;;3105058;28;20042;-53
2021/10/23 06:10:11;;;;;;;34.00;15.23;;;22.50;52.60;;;;;;3104084;28;20077;-55
2021/10/23 06:11:44;;;;;;;26.83;11.95;;;22.20;52.00;;;;;;3101325;28;20172;-53
2021/10/23 06:13:18;;;;;;;27.27;12.25;;;22.00;50.80;;;;;;3105747;28;20054;-53
2021/10/23 06:14:49;;;;;;;28.63;11.90;;;22.00;50.70;;;;;;3103989;28;20488;-56
2021/10/23 06:16:21;;;;;;;34.45;12.45;;;22.20;50.80;;;;;;3102464;28;20053;-56
2021/10/23 06:17:53;;;;;;;33.88;12.45;;;22.20;51.10;;;;;;3099030;28;20050;-54
2021/10/23 06:19:23;;;;;;;26.75;12.75;;;22.30;51.50;;;;;;3097941;28;20100;-53
2021/10/23 06:20:55;;;;;;;27.60;13.15;;;22.30;51.90;;;;;;3108608;28;20469;-52
2021/10/23 06:22:27;;;;;;;28.73;13.93;;;22.20;52.10;;;;;;3103527;28;20038;-54
2021/10/23 06:23:58;;;;;;;35.20;13.10;;;22.20;52.50;;;;;;3097072;28;20296;-54
2021/10/23 06:25:30;;;;;;;25.08;13.32;;;22.10;52.80;;;;;;3097221;28;20050;-58
2021/10/23 06:27:03;;;;;;;27.35;13.07;;;22.10;53.00;;;;;;3097036;28;20347;-51
2021/10/23 06:28:37;;;;;;;26.85;12.90;;;22.10;53.00;;;;;;3096714;28;20453;-55
2021/10/23 06:30:09;;;;;;;29.85;12.88;;;22.10;53.10;;;;;;3095963;28;20572;-59
2021/10/23 06:31:41;;;;;;;24.48;11.77;;;22.10;53.20;;;;;;3096890;28;20050;-58
2021/10/23 06:33:12;;;;;;;24.08;12.23;;;22.20;53.30;;;;;;3107020;28;20046;-55
2021/10/23 06:34:44;;;;;;;22.85;12.20;;;22.30;53.30;;;;;;3104903;28;20045;-50
2021/10/23 06:36:16;;;;;;;26.50;12.20;;;22.40;53.10;;;;;;3108120;28;20068;-52
2021/10/23 06:37:48;;;;;;;24.95;12.10;;;22.40;53.00;;;;;;3096016;28;20054;-56
2021/10/23 06:39:19;;;;;;;30.70;11.32;;;22.40;52.80;;;;;;3096647;28;20051;-56
2021/10/23 06:40:51;;;;;;;25.83;11.82;;;22.40;53.00;;;;;;3095868;28;20057;-57
2021/10/23 06:42:23;;;;;;;27.65;11.93;;;22.40;53.00;;;;;;3095741;28;20056;-53
2021/10/23 06:43:55;;;;;;;25.48;12.35;;;22.30;53.10;;;;;;3096635;28;20145;-51
2021/10/23 06:45:26;;;;;;;29.17;12.45;;;22.30;53.40;;;;;;3103097;28;20049;-51
2021/10/23 06:46:58;;;;;;;21.17;10.40;;;22.30;53.70;;;;;;3100682;28;20046;-52
2021/10/23 06:48:30;;;;;;;22.40;11.93;;;22.30;53.70;;;;;;3096930;28;20050;-54
2021/10/23 06:50:02;;;;;;;25.85;11.55;;;22.30;53.70;;;;;;3096248;28;20058;-52
2021/10/23 06:51:34;;;;;;;25.30;10.80;;;22.20;53.90;;;;;;3105198;28;20168;-54
2021/10/23 06:53:05;;;;;;;25.55;10.70;;;22.20;53.70;;;;;;3100557;28;20046;-60
2021/10/23 06:54:38;;;;;;;24.85;11.23;;;22.20;53.60;;;;;;3104205;28;20046;-50
2021/10/23 06:56:10;;;;;;;25.23;12.52;;;22.20;53.60;;;;;;3098673;28;20473;-54
2021/10/23 06:57:46;;;;;;;25.67;11.35;;;22.10;54.00;;;;;;3095383;28;20058;-57
2021/10/23 06:59:18;;;;;;;27.83;11.27;;;22.10;54.10;;;;;;3096409;28;20054;-59
2021/10/23 07:00:49;;;;;;;25.23;10.73;;;22.10;54.10;;;;;;3101078;28;20073;-52
2021/10/23 07:02:21;;;;;;;29.50;10.95;;;22.30;53.90;;;;;;3101118;28;20050;-55
2021/10/23 07:03:55;;;;;;;23.02;11.20;;;22.40;54.00;;;;;;3101044;28;20041;-55
2021/10/23 07:05:27;;;;;;;372.00;120.25;;;22.40;54.10;;;;;;3107690;28;20096;-55
2021/10/23 07:06:58;;;;;;;506.83;170.80;;;22.50;54.10;;;;;;3106336;28;20053;-52
2021/10/23 07:08:30;;;;;;;418.50;140.00;;;22.40;53.90;;;;;;3108437;28;20057;-58
2021/10/23 07:10:02;;;;;;;322.88;106.07;;;22.40;53.60;;;;;;3106235;28;20050;-52
2021/10/23 07:11:34;;;;;;;212.00;66.87;;;22.40;53.40;;;;;;3095624;28;20378;-52
2021/10/23 07:13:07;;;;;;;214.20;67.97;;;22.30;52.80;;;;;;3099672;28;20301;-58
2021/10/23 07:14:39;;;;;;;208.60;67.43;;;22.30;52.50;;;;;;3097526;28;20112;-59
2021/10/23 07:16:11;;;;;;;152.10;49.95;;;22.30;52.50;;;;;;3101708;28;20045;-56
2021/10/23 07:17:43;;;;;;;138.97;44.70;;;22.20;52.10;;;;;;3095522;28;20054;-57
2021/10/23 07:19:15;;;;;;;128.33;44.27;;;22.20;51.80;;;;;;3096381;28;20305;-60
2021/10/23 07:20:47;;;;;;;138.20;42.37;;;22.20;51.60;;;;;;3104064;28;20293;-60
2021/10/23 07:22:18;;;;;;;109.10;39.03;;;22.20;51.50;;;;;;3098415;28;20305;-54
2021/10/23 07:23:53;;;;;;;97.88;33.67;;;22.20;51.40;;;;;;3098976;28;20555;-56
2021/10/23 07:25:26;;;;;;;92.07;31.25;;;22.20;50.90;;;;;;3105448;28;20054;-54
2021/10/23 07:26:57;;;;;;;69.53;20.33;;;22.20;50.80;;;;;;3095128;28;20058;-54
2021/10/23 07:28:30;;;;;;;36.00;11.40;;;22.00;48.30;;;;;;3095395;28;20050;-56
2021/10/23 07:30:03;;;;;;;37.63;7.82;;;21.60;47.30;;;;;;3096198;28;20493;-54
2021/10/23 07:31:34;;;;;;;20.88;6.13;;;21.40;46.50;;;;;;3096303;28;20517;-56
2021/10/23 07:33:06;;;;;;;21.30;6.47;;;21.20;46.50;;;;;;3098022;28;20056;-53
2021/10/23 07:34:38;;;;;;;24.60;7.80;;;21.10;47.00;;;;;;3096004;28;20101;-61
2021/10/23 07:36:10;;;;;;;24.33;7.68;;;21.30;46.80;;;;;;3105205;28;20479;-55
2021/10/23 07:37:41;;;;;;;31.23;8.70;;;21.40;47.20;;;;;;3102402;28;20054;-53
2021/10/23 07:39:13;;;;;;;23.48;7.63;;;21.70;47.00;;;;;;3099038;28;20451;-54
2021/10/23 07:40:45;;;;;;;26.98;7.30;;;21.80;46.80;;;;;;3097713;28;20058;-53
2021/10/23 07:42:17;;;;;;;20.15;6.35;;;21.90;46.40;;;;;;3102269;28;20046;-58
2021/10/23 07:43:50;;;;;;;23.83;6.80;;;22.10;46.20;;;;;;3103073;28;20069;-52
2021/10/23 07:45:21;;;;;;;23.00;6.47;;;22.30;46.20;;;;;;3099005;28;20042;-52
2021/10/23 07:46:53;;;;;;;22.85;6.15;;;22.50;46.10;;;;;;3100912;28;20156;-53
2021/10/23 07:48:25;;;;;;;18.25;6.18;;;22.60;45.90;;;;;;3105015;28;20046;-53